Morrisville, Missouri
Current Conditions -  °F | °C
As of 2:13 AM on Thursday 27 Nov 2014 (Local Time) from KSGF Reporting Station
Overcast Overcast  
Wind Chill: 20°   Ceiling: 3000
Heat Index: 31°   Visibility: 9mi
Dew Point: 24°   Wind: 15mph
Humidity: 76%   Direction: 330°NNW
Pressure: 30.38"   Gusts: NA
Location:  37.48°N, 93.43°W
Report Text: KSGF 270813Z 33013KT 9SM FEW018 OVC030 M01/M04 A3038 RMK AO2 T10061044
Loading
Personal Weather Stations






























Interactive Weather Map New forecast layout! Learn more

10-Day Weather Forecast

Advertisements
Track Severe Weather on mobile